Grizzly Air Cargo 5375


PASD
Sand Point Airport
Sand Point, Alaska, US
PACD
Cold Bay Airport
Cold Bay, Alaska, US

Activity Log

Date Flight Route Aircraft Duration
No Flights Yet

Route Details

Aircraft Information
Primary: Saab 340AF
Backup: Not Available
Route Data
Distance: 92nm
Sched. Duration: 0h 50m
Avg. Duration: 0h 00m (-50m)
Times Flown: 0
Recm'd Route: HBT2 HBT G12 ELF
Planned Altitude: 12,000ft
Origin Wx: PASD 271029Z AUTO 00000KT 10SM BKN018 M03/M04 A2968 RMK AO2 FZRANO
Dest. Wx: PACD 271053Z AUTO 14007KT 10SM OVC006 M01/M02 A2964 RMK AO2 SLP039 T10061022 TSNO
Notes:

Financial History
Total Freight: 0lbs
Average Load: 0lbs/flt
Fuel Used: 0lbs
Avg. Fuel Used: 0lbs/flt
Fuel Expense: $0
Avg. Fuel Expense: $0
Avg. Fuel Cost: $0/lbs
Total Gross Income: $0
Pilot Pay: $0
Total Expenses: $0
Total Revenue: $0
Average Revenue: $0